createdAt,value
2019-06-15T00:00:32.849Z,5.20
2019-06-15T00:01:32.865Z,5.30
2019-06-15T00:02:32.881Z,5.30
2019-06-15T00:03:32.902Z,5.50
2019-06-15T00:04:32.917Z,5.30
2019-06-15T00:05:32.938Z,5.30
2019-06-15T00:06:32.954Z,5.30
2019-06-15T00:07:32.975Z,5.40
2019-06-15T00:08:32.996Z,5.50
2019-06-15T00:09:33.031Z,5.40
2019-06-15T00:10:33.032Z,5.10
2019-06-15T00:11:33.049Z,5.30
2019-06-15T00:12:33.062Z,5.10
2019-06-15T00:13:33.085Z,5.50
2019-06-15T00:14:33.105Z,5.60
2019-06-15T00:15:33.120Z,5.30
2019-06-15T00:16:33.140Z,5.60
2019-06-15T00:17:33.161Z,4.30
2019-06-15T00:18:33.170Z,4.50
2019-06-15T00:19:33.192Z,5.00
2019-06-15T00:20:33.213Z,5.00
2019-06-15T00:21:33.229Z,5.50
2019-06-15T00:22:33.245Z,5.30
2019-06-15T00:23:33.260Z,4.90
2019-06-15T00:24:35.565Z,4.40
2019-06-15T00:25:33.301Z,4.70
2019-06-15T00:26:33.323Z,5.10
2019-06-15T00:27:33.333Z,4.40
2019-06-15T00:28:33.349Z,4.30
2019-06-15T00:29:33.379Z,4.40
2019-06-15T00:30:33.384Z,4.70
2019-06-15T00:31:33.405Z,4.90
2019-06-15T00:32:33.420Z,4.40
2019-06-15T00:33:33.439Z,5.40
2019-06-15T00:34:33.459Z,4.10
2019-06-15T00:35:33.476Z,4.20
2019-06-15T00:36:33.496Z,4.80
2019-06-15T00:37:33.512Z,4.10
2019-06-15T00:38:33.524Z,5.10
2019-06-15T00:39:33.543Z,4.30
2019-06-15T00:40:33.561Z,4.00
2019-06-15T00:41:33.584Z,4.60
2019-06-15T00:42:33.606Z,4.00
2019-06-15T00:43:33.622Z,3.90
2019-06-15T00:44:33.637Z,3.80
2019-06-15T00:45:33.659Z,4.30
2019-06-15T00:46:33.672Z,3.90
2019-06-15T00:47:33.688Z,4.20
2019-06-15T00:48:33.708Z,4.50
2019-06-15T00:49:33.724Z,4.00
2019-06-15T00:50:33.743Z,4.00
2019-06-15T00:51:33.762Z,4.50
2019-06-15T00:52:33.782Z,4.00
2019-06-15T00:53:33.797Z,3.90
2019-06-15T00:54:33.811Z,5.10
2019-06-15T00:55:33.832Z,4.10
2019-06-15T00:56:33.847Z,4.50
2019-06-15T00:57:33.877Z,4.20
2019-06-15T00:58:33.886Z,4.10
2019-06-15T00:59:33.901Z,4.60
2019-06-15T01:00:33.920Z,4.30
2019-06-15T01:01:35.506Z,4.90
2019-06-15T01:02:33.961Z,4.30
2019-06-15T01:03:34.003Z,4.10
2019-06-15T01:04:33.997Z,4.60
2019-06-15T01:05:34.012Z,4.70
2019-06-15T01:06:34.029Z,4.40
2019-06-15T01:07:34.045Z,5.00
2019-06-15T01:08:34.065Z,4.20
2019-06-15T01:09:34.080Z,4.60
2019-06-15T01:10:34.101Z,3.70
2019-06-15T01:11:34.116Z,4.10
2019-06-15T01:12:34.135Z,4.20
2019-06-15T01:13:34.161Z,4.50
2019-06-15T01:14:34.176Z,4.30
2019-06-15T01:15:34.186Z,4.10
2019-06-15T01:16:34.204Z,4.40
2019-06-15T01:17:34.240Z,4.10
2019-06-15T01:18:34.238Z,4.10
2019-06-15T01:19:34.262Z,4.40
2019-06-15T01:20:34.285Z,4.00
2019-06-15T01:21:34.297Z,4.20
2019-06-15T01:22:34.316Z,4.30
2019-06-15T01:23:34.330Z,3.90
2019-06-15T01:24:34.350Z,4.40
2019-06-15T01:25:34.366Z,3.50
2019-06-15T01:26:34.383Z,4.10
2019-06-15T01:27:34.399Z,4.50
2019-06-15T01:28:34.416Z,3.80
2019-06-15T01:29:34.434Z,4.70
2019-06-15T01:30:34.452Z,3.90
2019-06-15T01:31:34.467Z,4.50
2019-06-15T01:32:34.484Z,4.00
2019-06-15T01:33:34.503Z,4.50
2019-06-15T01:34:34.523Z,4.70
2019-06-15T01:35:34.537Z,4.20
2019-06-15T01:36:34.555Z,4.30
2019-06-15T01:37:34.575Z,4.70
2019-06-15T01:38:34.587Z,4.00
2019-06-15T01:39:34.612Z,4.70
2019-06-15T01:40:34.626Z,4.30
2019-06-15T01:41:34.643Z,3.80
2019-06-15T01:42:34.660Z,4.30
2019-06-15T01:43:34.689Z,4.30
2019-06-15T01:44:34.693Z,4.20
2019-06-15T01:45:34.711Z,4.90
2019-06-15T01:46:34.733Z,3.90
2019-06-15T01:47:34.750Z,4.10
2019-06-15T01:48:34.765Z,4.60
2019-06-15T01:49:34.781Z,4.70
2019-06-15T01:50:34.799Z,4.30
2019-06-15T01:51:34.818Z,4.20
2019-06-15T01:52:34.885Z,4.40
2019-06-15T01:53:34.848Z,4.60
2019-06-15T01:54:34.868Z,4.60
2019-06-15T01:55:34.885Z,4.20
2019-06-15T01:56:34.901Z,4.30
2019-06-15T01:57:34.917Z,4.40
2019-06-15T01:58:34.938Z,4.60
2019-06-15T01:59:34.955Z,4.20
2019-06-15T02:00:34.972Z,4.50
2019-06-15T02:01:34.987Z,4.40
2019-06-15T02:02:35.006Z,4.80
2019-06-15T02:03:35.020Z,4.80
2019-06-15T02:04:35.042Z,4.50
2019-06-15T02:05:35.056Z,4.00
2019-06-15T02:06:35.072Z,4.10
2019-06-15T02:07:35.092Z,3.90
2019-06-15T02:08:35.108Z,4.40
2019-06-15T02:09:35.124Z,4.20
2019-06-15T02:10:35.135Z,3.80
2019-06-15T02:11:35.162Z,4.00
2019-06-15T02:12:35.177Z,4.50
2019-06-15T02:13:35.189Z,4.70
2019-06-15T02:14:35.209Z,4.20
2019-06-15T02:15:35.222Z,4.10
2019-06-15T02:16:35.241Z,4.30
2019-06-15T02:17:35.258Z,4.30
2019-06-15T02:18:35.286Z,4.30
2019-06-15T02:19:35.294Z,4.80
2019-06-15T02:20:35.312Z,4.30
2019-06-15T02:21:35.324Z,4.20
2019-06-15T02:22:35.347Z,4.20
2019-06-15T02:23:35.361Z,4.20
2019-06-15T02:24:35.376Z,4.00
2019-06-15T02:25:36.727Z,4.30
2019-06-15T02:26:35.412Z,4.10
2019-06-15T02:27:35.439Z,4.60
2019-06-15T02:28:35.444Z,4.90
2019-06-15T02:29:35.460Z,5.70
2019-06-15T02:30:35.497Z,4.40
2019-06-15T02:31:35.501Z,4.80
2019-06-15T02:32:35.517Z,6.00
2019-06-15T02:33:35.534Z,5.00
2019-06-15T02:34:35.545Z,4.60
2019-06-15T02:35:35.566Z,4.70
2019-06-15T02:36:35.582Z,5.00
2019-06-15T02:37:35.599Z,3.80
2019-06-15T02:38:35.614Z,3.80
2019-06-15T02:39:35.632Z,4.40
2019-06-15T02:40:35.651Z,4.20
2019-06-15T02:41:35.668Z,4.20
2019-06-15T02:42:35.681Z,4.30
2019-06-15T02:43:35.701Z,4.10
2019-06-15T02:44:35.715Z,4.20
2019-06-15T02:45:35.732Z,4.70
2019-06-15T02:46:35.757Z,3.80
2019-06-15T02:47:35.774Z,4.40
2019-06-15T02:48:35.788Z,3.70
2019-06-15T02:49:35.800Z,4.10
2019-06-15T02:50:35.819Z,4.00
2019-06-15T02:51:35.834Z,3.80
2019-06-15T02:52:35.862Z,4.20
2019-06-15T02:53:35.890Z,4.20
2019-06-15T02:54:35.895Z,4.70
2019-06-15T02:55:47.310Z,4.40
2019-06-15T02:56:35.920Z,4.60
2019-06-15T02:57:35.936Z,4.40
2019-06-15T02:58:35.964Z,4.60
2019-06-15T02:59:35.968Z,4.70
2019-06-15T03:00:35.994Z,4.10
2019-06-15T03:01:36.011Z,4.00
2019-06-15T03:02:36.056Z,4.20
2019-06-15T03:03:36.040Z,4.30
2019-06-15T03:04:36.058Z,4.00
2019-06-15T03:05:36.073Z,3.90
2019-06-15T03:06:36.097Z,4.20
2019-06-15T03:07:36.108Z,3.60
2019-06-15T03:08:36.129Z,4.10
2019-06-15T03:09:36.143Z,4.30
2019-06-15T03:10:36.159Z,4.00
2019-06-15T03:11:36.172Z,3.70
2019-06-15T03:12:36.189Z,3.90
2019-06-15T03:13:36.209Z,4.30
2019-06-15T03:14:36.225Z,3.80
2019-06-15T03:15:36.242Z,3.40
2019-06-15T03:16:36.258Z,4.10
2019-06-15T03:17:36.275Z,4.40
2019-06-15T03:18:36.292Z,4.00
2019-06-15T03:19:36.305Z,4.10
2019-06-15T03:20:36.321Z,4.00
2019-06-15T03:21:36.344Z,4.80
2019-06-15T03:22:36.365Z,4.00
2019-06-15T03:23:36.384Z,4.20
2019-06-15T03:24:36.395Z,3.80
2019-06-15T03:25:36.409Z,4.00
2019-06-15T03:26:36.419Z,4.50
2019-06-15T03:27:36.444Z,3.90
2019-06-15T03:28:36.456Z,4.20
2019-06-15T03:29:36.477Z,4.60
2019-06-15T03:30:36.488Z,3.80
2019-06-15T03:31:36.509Z,4.20
2019-06-15T03:32:36.542Z,4.30
2019-06-15T03:33:36.543Z,4.20
2019-06-15T03:34:36.556Z,4.10
2019-06-15T03:35:36.573Z,4.00
2019-06-15T03:36:36.592Z,4.00
2019-06-15T03:37:36.604Z,3.70
2019-06-15T03:38:36.620Z,4.00
2019-06-15T03:39:36.635Z,4.00
2019-06-15T03:40:36.654Z,3.60
2019-06-15T03:41:36.669Z,4.20
2019-06-15T03:42:36.688Z,4.40
2019-06-15T03:43:36.699Z,4.50
2019-06-15T03:44:36.717Z,4.10
2019-06-15T03:45:36.740Z,4.50
2019-06-15T03:46:36.756Z,4.00
2019-06-15T03:47:36.766Z,4.50
2019-06-15T03:48:36.781Z,3.70
2019-06-15T03:49:36.800Z,4.10
2019-06-15T03:50:36.822Z,4.10
2019-06-15T03:51:36.831Z,4.10
2019-06-15T03:52:36.848Z,4.00
2019-06-15T03:53:36.865Z,4.10
2019-06-15T03:54:36.879Z,4.60
2019-06-15T03:55:40.313Z,4.50
2019-06-15T03:56:36.913Z,4.90
2019-06-15T03:57:36.929Z,3.60
2019-06-15T03:58:36.944Z,4.60
2019-06-15T03:59:36.966Z,3.90
2019-06-15T04:00:36.981Z,3.60
2019-06-15T04:01:36.989Z,3.90
2019-06-15T04:02:37.022Z,3.90
2019-06-15T04:03:37.082Z,4.00
2019-06-15T04:04:37.037Z,4.40
2019-06-15T04:05:37.063Z,4.60
2019-06-15T04:06:37.075Z,4.40
2019-06-15T04:07:37.087Z,4.40
2019-06-15T04:08:37.105Z,4.60
2019-06-15T04:09:37.131Z,4.60
2019-06-15T04:10:37.136Z,4.10
2019-06-15T04:11:37.150Z,4.70
2019-06-15T04:12:37.164Z,3.90
2019-06-15T04:13:37.181Z,4.00
2019-06-15T04:14:37.201Z,4.10
2019-06-15T04:15:37.213Z,4.80
2019-06-15T04:16:37.234Z,5.10
2019-06-15T04:17:37.243Z,4.60
2019-06-15T04:18:37.262Z,4.20
2019-06-15T04:19:37.277Z,4.00
2019-06-15T04:20:37.294Z,4.40
2019-06-15T04:21:37.306Z,4.30
2019-06-15T04:22:37.337Z,4.70
2019-06-15T04:23:37.338Z,4.40
2019-06-15T04:24:37.356Z,4.00
2019-06-15T04:25:37.369Z,4.40
2019-06-15T04:26:37.386Z,4.30
2019-06-15T04:27:37.401Z,4.10
2019-06-15T04:28:37.419Z,4.30
2019-06-15T04:29:37.436Z,4.30
2019-06-15T04:30:37.448Z,4.00
2019-06-15T04:31:39.982Z,4.10
2019-06-15T04:32:37.484Z,4.10
2019-06-15T04:33:37.504Z,3.70
2019-06-15T04:34:37.514Z,4.20
2019-06-15T04:35:37.528Z,4.10
2019-06-15T04:36:37.543Z,4.40
2019-06-15T04:37:37.563Z,4.80
2019-06-15T04:38:37.576Z,3.70
2019-06-15T04:39:37.594Z,4.30
2019-06-15T04:40:37.616Z,4.30
2019-06-15T04:41:37.624Z,4.50
2019-06-15T04:42:37.637Z,4.10
2019-06-15T04:43:37.657Z,4.10
2019-06-15T04:44:37.670Z,4.00
2019-06-15T04:45:37.690Z,4.60
2019-06-15T04:46:37.706Z,4.80
2019-06-15T04:47:37.724Z,4.20
2019-06-15T04:48:37.736Z,4.70
2019-06-15T04:49:37.754Z,4.00
2019-06-15T04:50:37.769Z,4.30
2019-06-15T04:51:37.781Z,4.50
2019-06-15T04:52:37.803Z,5.70
2019-06-15T04:53:37.818Z,4.30
2019-06-15T04:54:37.839Z,5.30
2019-06-15T04:55:37.851Z,4.70
2019-06-15T04:56:50.283Z,5.00
2019-06-15T04:57:37.952Z,4.70
2019-06-15T04:58:37.894Z,4.80
2019-06-15T04:59:37.909Z,5.00
2019-06-15T05:00:38.168Z,4.60
2019-06-15T05:01:37.946Z,4.80
2019-06-15T05:02:37.961Z,5.10
2019-06-15T05:03:37.973Z,4.50
2019-06-15T05:04:37.993Z,4.90
2019-06-15T05:05:38.011Z,4.90
2019-06-15T05:06:38.024Z,4.50
2019-06-15T05:07:38.039Z,4.90
2019-06-15T05:08:38.054Z,4.80
2019-06-15T05:09:38.075Z,5.10
2019-06-15T05:10:38.086Z,5.20
2019-06-15T05:11:38.105Z,5.00
2019-06-15T05:12:38.123Z,5.60
2019-06-15T05:13:38.138Z,5.10
2019-06-15T05:14:38.154Z,6.10
2019-06-15T05:15:38.171Z,5.50
2019-06-15T05:16:38.182Z,5.70
2019-06-15T05:17:38.206Z,6.30
2019-06-15T05:18:38.225Z,5.70
2019-06-15T05:19:38.233Z,5.90
2019-06-15T05:20:38.249Z,6.00
2019-06-15T05:21:38.266Z,5.90
2019-06-15T05:22:38.282Z,5.70
2019-06-15T05:23:38.303Z,5.40
2019-06-15T05:24:38.318Z,5.70
2019-06-15T05:25:38.339Z,5.40
2019-06-15T05:26:38.346Z,5.30
2019-06-15T05:27:38.364Z,5.60
2019-06-15T05:28:38.381Z,5.10
2019-06-15T05:29:38.397Z,5.70
2019-06-15T05:30:38.413Z,5.60
2019-06-15T05:31:38.430Z,5.80
2019-06-15T05:32:38.445Z,5.30
2019-06-15T05:33:38.459Z,6.20
2019-06-15T05:34:38.477Z,5.30
2019-06-15T05:35:38.503Z,5.40
2019-06-15T05:36:38.512Z,5.00
2019-06-15T05:37:38.527Z,5.10
2019-06-15T05:38:38.538Z,5.20
2019-06-15T05:39:38.559Z,5.70
2019-06-15T05:40:38.572Z,5.40
2019-06-15T05:41:38.592Z,5.40
2019-06-15T05:42:38.604Z,5.70
2019-06-15T05:43:38.622Z,5.60
2019-06-15T05:44:38.641Z,5.40
2019-06-15T05:45:38.655Z,5.30
2019-06-15T05:46:38.677Z,4.70
2019-06-15T05:47:38.690Z,4.70
2019-06-15T05:48:38.708Z,5.10
2019-06-15T05:49:38.725Z,4.90
2019-06-15T05:50:38.737Z,4.40
2019-06-15T05:51:38.756Z,4.10
2019-06-15T05:52:38.772Z,4.40
2019-06-15T05:53:38.787Z,4.50
2019-06-15T05:54:38.802Z,4.10
2019-06-15T05:55:38.832Z,4.90
2019-06-15T05:56:38.836Z,4.40
2019-06-15T05:57:38.853Z,4.90
2019-06-15T05:58:38.867Z,4.90
2019-06-15T05:59:38.892Z,4.60
2019-06-15T06:00:39.026Z,5.10
2019-06-15T06:01:38.925Z,5.30
2019-06-15T06:02:38.937Z,4.70
2019-06-15T06:03:38.957Z,5.00
2019-06-15T06:04:38.971Z,5.00
2019-06-15T06:05:38.986Z,4.60
2019-06-15T06:06:39.004Z,5.00
2019-06-15T06:07:39.018Z,4.90
2019-06-15T06:08:39.038Z,5.20
2019-06-15T06:09:39.083Z,5.20
2019-06-15T06:10:39.064Z,6.00
2019-06-15T06:11:39.087Z,4.70
2019-06-15T06:12:39.098Z,4.80
2019-06-15T06:13:39.119Z,4.70
2019-06-15T06:14:39.134Z,4.60
2019-06-15T06:15:39.148Z,4.60
2019-06-15T06:16:39.322Z,4.80
2019-06-15T06:17:42.179Z,5.10
2019-06-15T06:18:39.200Z,4.80
2019-06-15T06:19:39.214Z,5.20
2019-06-15T06:20:39.230Z,4.80
2019-06-15T06:21:39.248Z,4.50
2019-06-15T06:22:39.263Z,5.10
2019-06-15T06:23:39.283Z,5.30
2019-06-15T06:24:39.298Z,4.80
2019-06-15T06:25:39.322Z,5.10
2019-06-15T06:26:39.333Z,5.40
2019-06-15T06:27:39.348Z,5.50
2019-06-15T06:28:39.367Z,5.40
2019-06-15T06:29:39.378Z,4.60
2019-06-15T06:30:39.397Z,4.00
2019-06-15T06:31:39.419Z,5.40
2019-06-15T06:32:39.431Z,4.90
2019-06-15T06:33:39.538Z,5.60
2019-06-15T06:34:39.462Z,5.40
2019-06-15T06:35:39.492Z,5.30
2019-06-15T06:36:39.495Z,5.40
2019-06-15T06:37:39.514Z,5.50
2019-06-15T06:38:39.528Z,4.80
2019-06-15T06:39:39.544Z,4.80
2019-06-15T06:40:39.564Z,5.40
2019-06-15T06:41:39.576Z,5.40
2019-06-15T06:42:39.596Z,5.50
2019-06-15T06:43:39.608Z,4.50
2019-06-15T06:44:39.626Z,4.90
2019-06-15T06:45:39.648Z,5.10
2019-06-15T06:46:39.659Z,4.80
2019-06-15T06:47:39.680Z,4.70
2019-06-15T06:48:39.691Z,4.30
2019-06-15T06:49:39.708Z,4.60
2019-06-15T06:50:41.346Z,5.70
2019-06-15T06:51:39.740Z,5.00
2019-06-15T06:52:39.758Z,5.60
2019-06-15T06:53:39.781Z,4.90
2019-06-15T06:54:39.794Z,4.60
2019-06-15T06:55:39.817Z,4.80
2019-06-15T06:56:39.829Z,4.90
2019-06-15T06:57:51.715Z,5.60
2019-06-15T06:58:39.861Z,5.50
2019-06-15T06:59:39.878Z,5.30
2019-06-15T07:00:39.892Z,5.30
2019-06-15T07:01:39.910Z,5.50
2019-06-15T07:02:39.926Z,5.50
2019-06-15T07:03:39.948Z,5.50
2019-06-15T07:04:39.960Z,5.80
2019-06-15T07:05:39.976Z,5.70
2019-06-15T07:06:39.994Z,5.70
2019-06-15T07:07:40.016Z,5.70
2019-06-15T07:08:40.038Z,6.20
2019-06-15T07:09:40.040Z,5.30
2019-06-15T07:10:40.060Z,5.10
2019-06-15T07:11:40.081Z,5.50
2019-06-15T07:12:40.091Z,5.40
2019-06-15T07:13:40.109Z,5.70
2019-06-15T07:14:40.123Z,5.20
2019-06-15T07:15:40.144Z,5.20
2019-06-15T07:16:40.159Z,5.70
2019-06-15T07:17:40.174Z,4.70
2019-06-15T07:18:40.195Z,5.00
2019-06-15T07:19:40.212Z,5.10
2019-06-15T07:20:40.230Z,5.10
2019-06-15T07:21:40.245Z,5.20
2019-06-15T07:22:40.258Z,5.60
2019-06-15T07:23:40.278Z,5.40
2019-06-15T07:24:40.292Z,5.50
2019-06-15T07:25:40.308Z,5.90
2019-06-15T07:26:40.325Z,5.40
2019-06-15T07:27:40.342Z,5.40
2019-06-15T07:28:40.365Z,5.40
2019-06-15T07:29:40.378Z,5.50
2019-06-15T07:30:40.395Z,5.50
2019-06-15T07:31:40.411Z,5.70
2019-06-15T07:32:40.425Z,6.00
2019-06-15T07:33:40.440Z,5.50
2019-06-15T07:34:40.458Z,6.10
2019-06-15T07:35:40.475Z,5.50
2019-06-15T07:36:40.493Z,5.90
2019-06-15T07:37:40.509Z,6.10
2019-06-15T07:38:40.537Z,6.30
2019-06-15T07:39:40.813Z,6.50
2019-06-15T07:40:40.558Z,5.70
2019-06-15T07:41:40.578Z,6.30
2019-06-15T07:42:40.593Z,5.90
2019-06-15T07:43:40.609Z,6.70
2019-06-15T07:44:40.659Z,5.90
2019-06-15T07:45:40.645Z,6.80
2019-06-15T07:46:40.657Z,6.10
2019-06-15T07:47:40.681Z,7.00
2019-06-15T07:48:40.714Z,6.00
2019-06-15T07:49:40.712Z,6.00
2019-06-15T07:50:40.727Z,6.30
2019-06-15T07:51:40.744Z,6.80
2019-06-15T07:52:40.768Z,5.90
2019-06-15T07:53:40.775Z,6.40
2019-06-15T07:54:40.793Z,6.00
2019-06-15T07:55:40.807Z,7.00
2019-06-15T07:56:40.830Z,6.30
2019-06-15T07:57:40.843Z,5.80
2019-06-15T07:58:40.861Z,6.00
2019-06-15T07:59:40.880Z,5.60
2019-06-15T08:00:40.904Z,6.50
2019-06-15T08:01:40.909Z,6.30
2019-06-15T08:02:40.927Z,6.70
2019-06-15T08:03:43.356Z,6.20
2019-06-15T08:04:40.962Z,6.20
2019-06-15T08:05:40.978Z,5.70
2019-06-15T08:06:40.992Z,5.70
2019-06-15T08:07:41.017Z,6.50
2019-06-15T08:08:41.026Z,5.70
2019-06-15T08:09:41.042Z,6.20
2019-06-15T08:10:41.062Z,6.50
2019-06-15T08:11:41.092Z,6.00
2019-06-15T08:12:41.095Z,5.10
2019-06-15T08:13:41.111Z,5.00
2019-06-15T08:14:41.128Z,5.60
2019-06-15T08:15:41.146Z,6.00
2019-06-15T08:16:41.161Z,6.00
2019-06-15T08:17:41.176Z,5.40
2019-06-15T08:18:41.196Z,6.20
2019-06-15T08:19:41.212Z,5.20
2019-06-15T08:20:41.230Z,5.70
2019-06-15T08:21:41.249Z,6.10
2019-06-15T08:22:41.267Z,5.60
2019-06-15T08:23:41.281Z,6.20
2019-06-15T08:24:41.297Z,6.50
2019-06-15T08:25:41.315Z,6.20
2019-06-15T08:26:41.333Z,5.20
2019-06-15T08:27:41.377Z,5.80
2019-06-15T08:28:41.365Z,6.00
2019-06-15T08:29:41.380Z,6.10
2019-06-15T08:30:41.395Z,5.80
2019-06-15T08:31:41.416Z,5.70
2019-06-15T08:32:41.430Z,6.00
2019-06-15T08:33:41.449Z,6.00
2019-06-15T08:34:41.466Z,5.10
2019-06-15T08:35:41.495Z,6.50
2019-06-15T08:36:41.503Z,5.80
2019-06-15T08:37:41.519Z,4.90
2019-06-15T08:38:41.535Z,5.60
2019-06-15T08:39:41.549Z,5.30
2019-06-15T08:40:41.573Z,5.50
2019-06-15T08:41:41.588Z,5.30
2019-06-15T08:42:41.612Z,5.90
2019-06-15T08:43:41.625Z,5.40
2019-06-15T08:44:41.637Z,5.30
2019-06-15T08:45:41.657Z,4.90
2019-06-15T08:46:41.669Z,6.00
2019-06-15T08:47:41.687Z,5.60
2019-06-15T08:48:41.707Z,5.90
2019-06-15T08:49:41.724Z,5.30
2019-06-15T08:50:41.742Z,4.90
2019-06-15T08:51:41.757Z,5.00
2019-06-15T08:52:41.775Z,5.20
2019-06-15T08:53:41.792Z,5.60
2019-06-15T08:54:41.810Z,7.90
2019-06-15T08:55:41.827Z,5.30
2019-06-15T08:56:41.843Z,5.70
2019-06-15T08:57:41.861Z,6.20
2019-06-15T08:58:54.832Z,5.50
2019-06-15T08:59:41.893Z,6.00
2019-06-15T09:00:41.916Z,4.90
2019-06-15T09:01:41.929Z,5.00
2019-06-15T09:02:41.950Z,5.70
2019-06-15T09:03:41.983Z,5.00
2019-06-15T09:04:41.983Z,5.20
2019-06-15T09:05:42.003Z,4.70
2019-06-15T09:06:42.018Z,4.70
2019-06-15T09:07:42.036Z,5.20
2019-06-15T09:08:42.052Z,5.30
2019-06-15T09:09:42.083Z,5.30
2019-06-15T09:10:42.095Z,5.30
2019-06-15T09:11:42.107Z,5.30
2019-06-15T09:12:42.130Z,5.50
2019-06-15T09:13:42.183Z,5.10
2019-06-15T09:14:42.163Z,5.20
2019-06-15T09:15:42.183Z,5.00
2019-06-15T09:16:42.203Z,5.70
2019-06-15T09:17:42.213Z,4.50
2019-06-15T09:18:42.233Z,4.80
2019-06-15T09:19:42.251Z,5.00
2019-06-15T09:20:42.270Z,5.00
2019-06-15T09:21:42.285Z,5.50
2019-06-15T09:22:42.310Z,4.90
2019-06-15T09:23:42.325Z,4.70
2019-06-15T09:24:42.339Z,5.20
2019-06-15T09:25:42.358Z,4.90
2019-06-15T09:26:42.382Z,5.20
2019-06-15T09:27:42.400Z,4.80
2019-06-15T09:28:42.442Z,5.10
2019-06-15T09:29:42.435Z,4.80
2019-06-15T09:30:42.452Z,5.20
2019-06-15T09:31:42.470Z,5.30
2019-06-15T09:32:42.592Z,4.70
2019-06-15T09:33:42.505Z,5.00
2019-06-15T09:34:42.519Z,5.10
2019-06-15T09:35:42.546Z,5.20
2019-06-15T09:36:42.561Z,4.90
2019-06-15T09:37:42.579Z,4.90
2019-06-15T09:38:42.597Z,5.30
2019-06-15T09:39:42.619Z,4.90
2019-06-15T09:40:42.645Z,4.70
2019-06-15T09:41:42.651Z,4.80
2019-06-15T09:42:42.671Z,5.60
2019-06-15T09:43:42.698Z,4.90
2019-06-15T09:44:42.708Z,5.90
2019-06-15T09:45:42.728Z,5.70
2019-06-15T09:46:42.749Z,4.60
2019-06-15T09:47:42.785Z,4.70
2019-06-15T09:48:42.782Z,4.80
2019-06-15T09:49:42.806Z,5.20
2019-06-15T09:50:42.822Z,5.00
2019-06-15T09:51:42.841Z,4.90
2019-06-15T09:52:42.860Z,4.60
2019-06-15T09:53:42.878Z,4.30
2019-06-15T09:54:42.895Z,5.50
2019-06-15T09:55:42.917Z,4.70
2019-06-15T09:56:42.942Z,4.70
2019-06-15T09:57:42.960Z,4.60
2019-06-15T09:58:42.973Z,4.80
2019-06-15T09:59:42.996Z,5.00
2019-06-15T10:00:43.011Z,5.30
2019-06-15T10:01:43.036Z,4.70
2019-06-15T10:02:43.048Z,5.70
2019-06-15T10:03:43.080Z,5.10
2019-06-15T10:04:43.089Z,5.70
2019-06-15T10:05:43.111Z,4.90
2019-06-15T10:06:43.128Z,5.20
2019-06-15T10:07:43.155Z,5.70
2019-06-15T10:08:43.164Z,5.60
2019-06-15T10:09:43.183Z,5.40
2019-06-15T10:10:43.207Z,6.00
2019-06-15T10:11:43.225Z,5.00
2019-06-15T10:12:43.247Z,4.80
2019-06-15T10:13:43.327Z,5.20
2019-06-15T10:14:43.287Z,4.90
2019-06-15T10:15:43.302Z,4.50
2019-06-15T10:16:43.322Z,5.20
2019-06-15T10:17:43.342Z,5.10
2019-06-15T10:18:43.362Z,5.00
2019-06-15T10:19:43.379Z,4.50
2019-06-15T10:20:43.396Z,5.20
2019-06-15T10:21:43.417Z,5.10
2019-06-15T10:22:43.435Z,4.80
2019-06-15T10:23:43.461Z,4.90
2019-06-15T10:24:43.482Z,5.20
2019-06-15T10:25:43.494Z,4.90
2019-06-15T10:26:43.514Z,5.00
2019-06-15T10:27:43.532Z,5.40
2019-06-15T10:28:43.552Z,5.20
2019-06-15T10:29:43.574Z,4.80
2019-06-15T10:30:43.590Z,4.50
2019-06-15T10:31:43.613Z,4.90
2019-06-15T10:32:43.628Z,5.00
2019-06-15T10:33:43.652Z,5.30
2019-06-15T10:34:43.667Z,5.50
2019-06-15T10:35:43.686Z,4.50
2019-06-15T10:36:43.710Z,5.00
2019-06-15T10:37:43.730Z,4.50
2019-06-15T10:38:43.744Z,5.20
2019-06-15T10:39:43.768Z,4.60
2019-06-15T10:40:43.794Z,4.20
2019-06-15T10:41:43.807Z,5.20
2019-06-15T10:42:43.820Z,4.30
2019-06-15T10:43:43.843Z,5.30
2019-06-15T10:44:43.866Z,5.10
2019-06-15T10:45:43.889Z,4.80
2019-06-15T10:46:43.913Z,5.20
2019-06-15T10:47:43.919Z,5.00
2019-06-15T10:48:43.939Z,5.20
2019-06-15T10:49:44.042Z,4.60
2019-06-15T10:50:43.976Z,5.20
2019-06-15T10:51:43.993Z,5.50
2019-06-15T10:52:44.018Z,5.20
2019-06-15T10:53:44.034Z,4.80
2019-06-15T10:54:44.057Z,5.50
2019-06-15T10:55:44.075Z,4.30
2019-06-15T10:56:44.104Z,5.40
2019-06-15T10:57:44.126Z,5.10
2019-06-15T10:58:44.133Z,4.30
2019-06-15T10:59:56.441Z,5.00
2019-06-15T11:00:44.178Z,5.10
2019-06-15T11:01:44.190Z,5.40
2019-06-15T11:02:44.213Z,5.50
2019-06-15T11:03:44.231Z,5.30
2019-06-15T11:04:44.252Z,5.80
2019-06-15T11:05:44.266Z,5.60
2019-06-15T11:06:44.296Z,5.70
2019-06-15T11:07:44.308Z,4.80
2019-06-15T11:08:44.327Z,5.70
2019-06-15T11:09:44.348Z,5.20
2019-06-15T11:10:44.363Z,5.20
2019-06-15T11:11:44.390Z,4.90
2019-06-15T11:12:46.681Z,4.70
2019-06-15T11:13:44.428Z,5.20
2019-06-15T11:14:44.451Z,4.70
2019-06-15T11:15:44.464Z,5.30
2019-06-15T11:16:44.481Z,5.00
2019-06-15T11:17:44.498Z,4.70
2019-06-15T11:18:44.517Z,5.30
2019-06-15T11:19:44.547Z,5.40
2019-06-15T11:20:44.555Z,5.50
2019-06-15T11:21:44.580Z,5.00
2019-06-15T11:22:44.602Z,5.30
2019-06-15T11:23:44.614Z,5.50
2019-06-15T11:24:44.638Z,5.20
2019-06-15T11:25:44.658Z,5.80
2019-06-15T11:26:44.676Z,5.40
2019-06-15T11:27:44.867Z,4.90
2019-06-15T11:28:44.715Z,5.30
2019-06-15T11:29:44.743Z,5.30
2019-06-15T11:30:44.754Z,4.90
2019-06-15T11:31:44.772Z,4.50
2019-06-15T11:32:44.791Z,4.40
2019-06-15T11:33:44.819Z,5.00
2019-06-15T11:34:44.837Z,4.60
2019-06-15T11:35:44.855Z,5.40
2019-06-15T11:36:44.874Z,4.90
2019-06-15T11:37:44.894Z,5.60
2019-06-15T11:38:44.915Z,5.40
2019-06-15T11:39:44.940Z,4.60
2019-06-15T11:40:44.961Z,5.00
2019-06-15T11:41:44.981Z,4.80
2019-06-15T11:42:44.997Z,6.00
2019-06-15T11:43:45.024Z,5.70
2019-06-15T11:44:45.036Z,4.80
2019-06-15T11:45:45.057Z,4.70
2019-06-15T11:46:45.080Z,4.30
2019-06-15T11:47:45.098Z,4.10
2019-06-15T11:48:45.121Z,4.60
2019-06-15T11:49:45.140Z,4.40
2019-06-15T11:50:45.160Z,4.90
2019-06-15T11:51:45.187Z,5.30
2019-06-15T11:52:45.205Z,4.80
2019-06-15T11:53:45.223Z,4.90
2019-06-15T11:54:45.246Z,4.80
2019-06-15T11:55:45.266Z,5.00
2019-06-15T11:56:45.288Z,5.40
2019-06-15T11:57:45.306Z,5.20
2019-06-15T11:58:45.334Z,5.20
2019-06-15T11:59:45.399Z,5.10
2019-06-15T12:00:45.368Z,5.70
2019-06-15T12:01:45.389Z,5.40
2019-06-15T12:02:45.412Z,4.90
2019-06-15T12:03:45.431Z,5.20
2019-06-15T12:04:57.664Z,4.60
2019-06-15T12:05:45.498Z,4.40
2019-06-15T12:06:45.495Z,5.10
2019-06-15T12:07:45.518Z,4.80
2019-06-15T12:08:45.538Z,4.70
2019-06-15T12:09:45.560Z,5.00
2019-06-15T12:10:45.611Z,5.10
2019-06-15T12:11:45.601Z,4.40
2019-06-15T12:12:45.619Z,4.50
2019-06-15T12:13:45.641Z,4.60
2019-06-15T12:14:45.662Z,4.60
2019-06-15T12:15:45.681Z,4.80
2019-06-15T12:16:45.710Z,5.00
2019-06-15T12:17:45.726Z,5.40
2019-06-15T12:18:45.751Z,4.90
2019-06-15T12:19:45.768Z,5.40
2019-06-15T12:20:45.787Z,5.50
2019-06-15T12:21:45.807Z,5.40
2019-06-15T12:22:45.828Z,4.70
2019-06-15T12:23:45.854Z,4.60
2019-06-15T12:24:45.872Z,4.80
2019-06-15T12:25:45.893Z,5.50
2019-06-15T12:26:45.910Z,5.20
2019-06-15T12:27:45.930Z,5.00
2019-06-15T12:28:45.961Z,5.60
2019-06-15T12:29:45.979Z,5.50
2019-06-15T12:30:47.781Z,5.20
2019-06-15T12:31:46.031Z,4.90
2019-06-15T12:32:46.036Z,5.20
2019-06-15T12:33:46.059Z,5.00
2019-06-15T12:34:46.091Z,4.80
2019-06-15T12:35:46.095Z,4.70
2019-06-15T12:36:46.116Z,4.70
2019-06-15T12:37:46.138Z,4.90
2019-06-15T12:38:46.164Z,4.90
2019-06-15T12:39:46.182Z,5.10
2019-06-15T12:40:46.207Z,5.20
2019-06-15T12:41:46.219Z,5.10
2019-06-15T12:42:46.239Z,4.70
2019-06-15T12:43:46.266Z,5.40
2019-06-15T12:44:46.287Z,4.60
2019-06-15T12:45:46.309Z,5.70
2019-06-15T12:46:46.337Z,5.20
2019-06-15T12:47:46.345Z,5.70
2019-06-15T12:48:46.368Z,6.10
2019-06-15T12:49:46.387Z,4.90
2019-06-15T12:50:46.408Z,5.40
2019-06-15T12:51:46.434Z,5.40
2019-06-15T12:52:46.456Z,4.90
2019-06-15T12:53:46.477Z,4.80
2019-06-15T12:54:46.494Z,5.40
2019-06-15T12:55:46.518Z,4.80
2019-06-15T12:56:46.535Z,4.90
2019-06-15T12:57:46.559Z,4.10
2019-06-15T12:58:46.578Z,4.30
2019-06-15T12:59:46.610Z,5.40
2019-06-15T13:01:01.765Z,4.90
2019-06-15T13:01:46.648Z,5.70
2019-06-15T13:02:46.663Z,5.30
2019-06-15T13:03:46.690Z,5.00
2019-06-15T13:04:46.709Z,5.30
2019-06-15T13:05:46.732Z,5.40
2019-06-15T13:06:46.749Z,4.60
2019-06-15T13:07:46.770Z,5.00
2019-06-15T13:08:46.796Z,5.10
2019-06-15T13:09:46.814Z,4.90
2019-06-15T13:10:46.834Z,5.10
2019-06-15T13:11:46.858Z,5.20
2019-06-15T13:12:46.881Z,5.10
2019-06-15T13:13:46.899Z,4.90
2019-06-15T13:14:46.921Z,4.60
2019-06-15T13:15:46.944Z,5.50
2019-06-15T13:16:48.119Z,4.90
2019-06-15T13:17:46.980Z,4.40
2019-06-15T13:18:47.006Z,5.40